Time;durP1;ratioP1;P1;durP2;ratioP2;P2;SDS_P1;SDS_P2;PMS_P1;PMS_P2;Temp;Humidity;BMP_temperature;BMP_pressure;BME280_temperature;BME280_humidity;BME280_pressure;Samples;Min_cycle;Max_cycle;Signal;HPM_P1;HPM_P2
2022/01/27 00:00:59;;;;;;;;;42.00;35.50;;;;;8.09;54.54;103030.09;4976902;28;45291;-88
2022/01/27 00:06:01;;;;;;;;;50.25;37.00;;;;;8.29;54.59;103054.06;4977420;28;45413;-88
2022/01/27 00:09:13;;;;;;;;;48.50;38.75;;;;;8.11;54.62;103025.69;4961151;28;45556;-87
2022/01/27 00:11:16;;;;;;;;;47.00;38.75;;;;;8.25;55.15;103046.09;4969792;28;46742;-87
2022/01/27 00:13:57;;;;;;;;;37.75;32.00;;;;;7.97;54.30;102992.00;4980460;28;45456;-88
2022/01/27 00:16:26;;;;;;;;;53.25;38.25;;;;;7.71;54.87;102937.94;4963242;28;45410;-87
2022/01/27 00:18:53;;;;;;;;;45.00;35.50;;;;;8.23;55.05;103033.69;4980720;28;45464;-87
2022/01/27 00:21:21;;;;;;;;;46.00;38.00;;;;;8.30;55.30;103039.91;4981030;28;45388;-87
2022/01/27 00:23:47;;;;;;;;;49.25;38.00;;;;;8.31;55.61;103041.66;4980492;28;45445;-88
2022/01/27 00:26:15;;;;;;;;;46.75;37.50;;;;;7.81;55.02;102959.19;4963119;28;45390;-87
2022/01/27 00:28:41;;;;;;;;;46.00;34.50;;;;;8.30;54.72;103030.16;4980500;28;45387;-87
2022/01/27 00:31:07;;;;;;;;;40.75;30.75;;;;;8.10;54.94;102994.69;4980524;28;45539;-87
2022/01/27 00:33:32;;;;;;;;;40.75;34.25;;;;;7.77;55.02;102935.28;4979784;28;45508;-88
2022/01/27 00:35:58;;;;;;;;;47.50;38.25;;;;;8.10;55.09;102989.38;4962835;28;45443;-88
2022/01/27 00:38:23;;;;;;;;;44.25;36.50;;;;;7.94;54.76;102957.47;4981011;28;45451;-87
2022/01/27 00:40:49;;;;;;;;;42.50;35.50;;;;;8.11;55.06;102984.06;4962293;28;47189;-87
2022/01/27 00:43:14;;;;;;;;;40.75;34.75;;;;;7.85;55.06;102930.91;4980360;28;45339;-87
2022/01/27 00:45:39;;;;;;;;;49.00;36.50;;;;;8.27;54.90;102998.28;4980144;28;45790;-87
2022/01/27 00:48:05;;;;;;;;;37.00;30.75;;;;;8.21;54.52;102996.47;4980457;28;45274;-88
2022/01/27 00:50:33;;;;;;;;;42.25;35.00;;;;;7.94;54.54;102952.16;4980270;28;46391;-87
2022/01/27 00:53:02;;;;;;;;;44.50;34.75;;;;;8.33;54.71;103008.03;4980295;28;45245;-87
2022/01/27 00:55:31;;;;;;;;;40.00;34.75;;;;;8.16;54.63;102973.47;4980421;28;45469;-88
2022/01/27 01:00:30;;;;;;;;;47.25;38.50;;;;;8.34;54.88;102997.41;4980287;28;46008;-88
2022/01/27 01:03:10;;;;;;;;;44.00;36.00;;;;;8.24;54.64;102969.03;4979922;28;45373;-87
2022/01/27 01:08:39;;;;;;;;;48.75;39.25;;;;;7.95;54.79;102923.84;4980004;28;45502;-87
2022/01/27 01:16:15;;;;;;;;;47.25;36.75;;;;;7.98;54.65;102913.22;4919687;28;45506;-87
2022/01/27 01:19:00;;;;;;;;;39.00;31.75;;;;;8.34;54.95;102975.28;4920248;28;45336;-87
2022/01/27 01:29:28;;;;;;;;;45.50;36.50;;;;;8.26;55.02;102964.63;4933184;28;45453;-87
2022/01/27 01:34:29;;;;;;;;;46.50;38.25;;;;;8.14;55.40;102957.50;4925847;28;45352;-87
2022/01/27 01:37:02;;;;;;;;;44.25;32.25;;;;;8.00;55.44;102943.31;4938295;28;45313;-87
2022/01/27 01:39:30;;;;;;;;;44.25;35.25;;;;;7.91;55.73;102908.78;4922914;28;45389;-87
2022/01/27 01:41:57;;;;;;;;;43.00;36.00;;;;;7.93;55.54;102917.63;4921845;28;47123;-87
2022/01/27 01:44:24;;;;;;;;;38.50;32.25;;;;;8.22;55.08;102954.88;4918963;28;45479;-88
2022/01/27 01:46:50;;;;;;;;;35.75;32.75;;;;;8.09;55.16;102913.25;4918836;28;45434;-87
2022/01/27 01:49:16;;;;;;;;;40.50;36.00;;;;;8.07;55.36;102913.22;4919365;28;45648;-88
2022/01/27 01:51:43;;;;;;;;;42.50;35.25;;;;;8.00;54.98;102901.69;4974729;28;46055;-87
2022/01/27 01:54:10;;;;;;;;;46.50;35.25;;;;;7.93;55.26;102885.78;4979426;28;45227;-88
2022/01/27 01:56:37;;;;;;;;;46.75;35.50;;;;;7.96;55.54;102899.03;4979516;28;45499;-87
2022/01/27 01:59:05;;;;;;;;;43.75;36.25;;;;;8.25;55.46;102939.81;4979571;28;45311;-87
2022/01/27 02:01:31;;;;;;;;;39.75;34.00;;;;;7.81;55.76;102868.94;4979159;28;45659;-87
2022/01/27 02:04:01;;;;;;;;;41.00;34.25;;;;;7.96;56.04;102883.09;4978665;28;45385;-87
2022/01/27 02:06:34;;;;;;;;;49.75;38.25;;;;;7.98;55.48;102887.56;4961900;28;45316;-88
2022/01/27 02:09:12;;;;;;;;;40.00;34.25;;;;;8.30;55.48;102939.84;4978968;28;46219;-87
2022/01/27 02:19:54;;;;;;;;;43.50;34.25;;;;;8.03;55.55;102901.72;4979123;28;45319;-87
2022/01/27 02:22:20;;;;;;;;;45.50;36.50;;;;;8.15;56.11;102924.78;4961593;28;47484;-88
2022/01/27 02:24:46;;;;;;;;;46.75;37.00;;;;;7.87;55.93;102878.69;4978368;28;45396;-87
2022/01/27 02:27:14;;;;;;;;;56.00;42.50;;;;;7.88;55.74;102876.91;4978888;28;45437;-87
2022/01/27 02:29:40;;;;;;;;;46.00;35.75;;;;;8.15;56.01;102919.47;4961514;28;45393;-87
2022/01/27 02:32:07;;;;;;;;;46.25;37.50;;;;;8.24;55.98;102931.84;4978511;28;45514;-88
2022/01/27 02:34:32;;;;;;;;;44.00;34.00;;;;;8.26;55.66;102916.78;4986169;28;45432;-88
2022/01/27 02:36:58;;;;;;;;;51.25;37.75;;;;;8.24;56.21;102914.16;4993132;28;45230;-87
2022/01/27 02:39:23;;;;;;;;;45.75;36.75;;;;;8.26;56.14;102914.13;4978764;28;45368;-87
2022/01/27 02:41:48;;;;;;;;;46.75;37.25;;;;;8.27;55.87;102907.06;4978109;28;46092;-87
2022/01/27 02:44:28;;;;;;;;;53.00;38.00;;;;;8.02;56.00;102862.75;4978610;28;45321;-87
2022/01/27 02:46:53;;;;;;;;;47.00;35.25;;;;;8.14;55.62;102875.16;4978527;28;45401;-87
2022/01/27 02:49:19;;;;;;;;;50.00;41.00;;;;;8.30;55.67;102899.09;4960931;28;45372;-87
2022/01/27 02:51:44;;;;;;;;;47.25;37.25;;;;;7.86;56.15;102818.50;4978469;28;45636;-87
2022/01/27 02:54:09;;;;;;;;;51.00;38.75;;;;;7.87;56.04;102817.63;4977980;28;45441;-87
2022/01/27 02:56:38;;;;;;;;;42.75;35.25;;;;;8.10;55.50;102856.56;4978806;28;45365;-87
2022/01/27 02:59:04;;;;;;;;;45.25;37.00;;;;;8.15;55.24;102861.03;4978472;28;45429;-87
2022/01/27 03:01:29;;;;;;;;;40.00;36.00;;;;;8.30;55.70;102884.03;4978518;28;45412;-87
2022/01/27 03:03:54;;;;;;;;;48.75;39.25;;;;;8.41;55.62;102908.00;4978104;28;45436;-87
2022/01/27 03:06:19;;;;;;;;;48.75;41.00;;;;;8.08;55.49;102848.63;4978430;28;45541;-87
2022/01/27 03:08:45;;;;;;;;;48.00;39.25;;;;;8.37;55.49;102888.47;4978330;28;45404;-87
2022/01/27 03:11:17;;;;;;;;;48.75;38.25;;;;;8.35;55.68;102892.88;4978060;28;45473;-87
2022/01/27 03:13:43;;;;;;;;;48.75;35.75;;;;;8.34;55.74;102896.44;4977968;28;45450;-87
2022/01/27 03:16:09;;;;;;;;;45.00;37.25;;;;;8.17;55.98;102871.63;4977950;28;45567;-87
2022/01/27 03:18:35;;;;;;;;;49.25;39.75;;;;;8.28;55.93;102895.56;4978702;28;45483;-87
2022/01/27 03:21:00;;;;;;;;;45.50;35.75;;;;;8.17;56.20;102869.88;4977554;28;46957;-87
2022/01/27 03:23:26;;;;;;;;;48.50;38.50;;;;;7.87;55.66;102830.91;4977761;28;45452;-88
2022/01/27 03:25:51;;;;;;;;;51.25;38.25;;;;;8.02;56.36;102846.84;4978092;28;45664;-87
2022/01/27 03:28:18;;;;;;;;;50.50;39.50;;;;;8.21;56.16;102884.03;4960206;28;45310;-86
2022/01/27 03:30:44;;;;;;;;;47.50;37.75;;;;;7.83;56.15;102826.47;4977876;28;45266;-86
2022/01/27 03:33:09;;;;;;;;;47.25;39.25;;;;;8.22;55.99;102897.31;4977662;28;45455;-87
2022/01/27 03:35:35;;;;;;;;;49.00;38.75;;;;;8.20;56.29;102899.09;4976024;28;45520;-87
2022/01/27 03:38:00;;;;;;;;;50.25;37.50;;;;;7.81;56.50;102829.09;4985866;28;45373;-88
2022/01/27 03:40:25;;;;;;;;;43.50;37.50;;;;;8.11;56.19;102869.88;4977732;28;45791;-87
2022/01/27 03:43:02;;;;;;;;;47.75;37.50;;;;;8.19;55.97;102885.78;4976605;28;54207;-87
2022/01/27 03:45:28;;;;;;;;;48.00;35.75;;;;;7.70;56.12;102809.66;4960391;28;45374;-87
2022/01/27 03:47:53;;;;;;;;;49.50;37.00;;;;;7.90;56.13;102848.59;4977840;28;45719;-87
2022/01/27 03:50:19;;;;;;;;;49.00;40.25;;;;;8.04;56.34;102861.00;4977403;28;49955;-87
2022/01/27 03:52:44;;;;;;;;;50.75;36.00;;;;;7.56;56.03;102776.88;4977350;28;45412;-87
2022/01/27 03:55:10;;;;;;;;;52.25;40.75;;;;;8.27;55.86;102892.00;4977517;28;45411;-87
2022/01/27 03:57:35;;;;;;;;;49.50;40.50;;;;;8.22;56.50;102872.53;4977908;28;45333;-87
2022/01/27 04:00:00;;;;;;;;;46.00;35.25;;;;;8.22;56.13;102880.50;4977261;28;45948;-88
2022/01/27 04:02:26;;;;;;;;;50.00;41.00;;;;;7.89;56.34;102815.88;4959986;28;45975;-87
2022/01/27 04:04:51;;;;;;;;;48.25;36.75;;;;;8.21;55.99;102866.31;4977051;28;45376;-87
2022/01/27 04:07:16;;;;;;;;;47.25;36.75;;;;;8.16;56.46;102869.88;4976998;28;45274;-87
2022/01/27 04:09:42;;;;;;;;;50.00;39.00;;;;;7.94;56.65;102843.31;4977382;28;45523;-87
2022/01/27 04:12:07;;;;;;;;;49.50;38.75;;;;;8.00;56.31;102847.72;4977300;28;45318;-87
2022/01/27 04:14:33;;;;;;;;;52.50;39.25;;;;;8.22;56.42;102881.38;4977604;28;45328;-88
2022/01/27 04:16:58;;;;;;;;;45.00;38.25;;;;;7.42;56.14;102744.13;4977762;28;45225;-87
2022/01/27 04:19:23;;;;;;;;;49.75;39.50;;;;;7.93;56.42;102822.03;4976941;28;46703;-87
2022/01/27 04:21:49;;;;;;;;;49.25;37.75;;;;;8.10;56.59;102849.50;4976757;28;45334;-87
2022/01/27 04:24:16;;;;;;;;;44.50;36.75;;;;;7.99;56.21;102833.56;4958894;28;51838;-87
2022/01/27 04:26:46;;;;;;;;;43.50;35.00;;;;;7.91;56.42;102814.06;4977480;28;45351;-87
2022/01/27 04:29:12;;;;;;;;;47.25;37.50;;;;;8.10;56.03;102854.81;4976210;28;46308;-87
2022/01/27 04:31:40;;;;;;;;;44.75;37.75;;;;;8.27;56.50;102867.22;4976785;28;45423;-87
2022/01/27 04:34:06;;;;;;;;;48.50;37.75;;;;;7.97;55.98;102813.22;4976390;28;45440;-87
2022/01/27 04:36:34;;;;;;;;;48.25;38.50;;;;;8.31;56.21;102874.28;4959341;28;45316;-87
2022/01/27 04:39:12;;;;;;;;;52.00;41.50;;;;;8.36;55.89;102884.06;4976985;28;46107;-87
2022/01/27 04:41:54;;;;;;;;;46.50;35.00;;;;;8.09;56.25;102837.09;4976908;28;45504;-87
2022/01/27 04:44:36;;;;;;;;;36.00;32.25;;;;;8.20;56.55;102869.00;4976502;28;45472;-87
2022/01/27 04:47:15;;;;;;;;;42.25;34.00;;;;;7.87;56.24;102809.66;4977186;28;45433;-87
2022/01/27 04:49:41;;;;;;;;;50.50;40.00;;;;;7.99;56.09;102833.56;4958683;28;46367;-87
2022/01/27 04:52:08;;;;;;;;;41.75;36.50;;;;;7.84;56.30;102814.94;4976999;28;45508;-87
2022/01/27 04:54:41;;;;;;;;;43.25;35.75;;;;;7.82;56.19;102798.16;4959329;28;45385;-87
2022/01/27 04:57:07;;;;;;;;;50.75;36.00;;;;;7.97;56.85;102832.66;4980142;28;45283;-87
2022/01/27 04:59:38;;;;;;;;;43.75;35.25;;;;;7.82;56.23;102806.13;4979996;28;45394;-87
2022/01/27 05:02:09;;;;;;;;;40.75;34.50;;;;;7.95;56.24;102818.50;4978922;28;45373;-87
2022/01/27 05:04:41;;;;;;;;;32.75;30.25;;;;;7.68;56.58;102768.03;4979085;28;45314;-87
2022/01/27 05:07:06;;;;;;;;;47.75;35.75;;;;;8.14;56.43;102858.34;4962243;28;45598;-87
2022/01/27 05:09:31;;;;;;;;;40.75;34.25;;;;;8.18;57.00;102874.28;4978762;28;45339;-88
2022/01/27 05:12:09;;;;;;;;;48.00;38.00;;;;;7.70;56.59;102783.09;4979843;28;45381;-87
2022/01/27 05:14:34;;;;;;;;;42.25;36.50;;;;;7.91;56.81;102810.53;4980116;28;45409;-87
2022/01/27 05:17:00;;;;;;;;;49.00;36.50;;;;;7.96;56.64;102822.03;4979837;28;45418;-87
2022/01/27 05:19:25;;;;;;;;;42.00;31.75;;;;;8.01;56.27;102822.94;4978835;28;50302;-88
2022/01/27 05:21:50;;;;;;;;;44.75;36.25;;;;;8.18;56.42;102852.16;4978617;28;51439;-87
2022/01/27 05:24:16;;;;;;;;;49.50;39.75;;;;;8.18;56.56;102854.81;4979983;28;45759;-87
2022/01/27 05:26:42;;;;;;;;;40.00;33.00;;;;;7.96;56.75;102825.59;4979779;28;45311;-88
2022/01/27 05:29:09;;;;;;;;;46.75;39.50;;;;;8.18;56.41;102853.03;4979436;28;45318;-89
2022/01/27 05:31:35;;;;;;;;;46.75;35.25;;;;;8.24;56.52;102863.69;4979525;28;45418;-89
2022/01/27 05:34:00;;;;;;;;;48.00;35.75;;;;;8.18;56.48;102862.78;4978759;28;45338;-89
2022/01/27 05:36:26;;;;;;;;;48.25;36.25;;;;;8.19;57.06;102869.84;4979229;28;45392;-88
2022/01/27 05:38:51;;;;;;;;;39.75;35.25;;;;;7.47;56.76;102743.28;4961515;28;47180;-89
2022/01/27 05:41:17;;;;;;;;;41.75;36.50;;;;;7.56;56.56;102758.28;4978683;28;45265;-89
2022/01/27 05:43:43;;;;;;;;;45.75;36.75;;;;;8.22;56.82;102864.56;4979154;28;45491;-88
2022/01/27 05:46:08;;;;;;;;;47.50;36.50;;;;;7.76;56.39;102791.06;4979757;28;45478;-88
2022/01/27 05:48:34;;;;;;;;;39.25;34.75;;;;;7.91;56.49;102831.78;4978005;28;46463;-89
2022/01/27 05:50:59;;;;;;;;;39.25;34.25;;;;;8.10;56.99;102864.53;4979038;28;45524;-89
2022/01/27 05:53:25;;;;;;;;;40.25;35.00;;;;;8.13;56.82;102868.09;4979334;28;45381;-89
2022/01/27 05:55:50;;;;;;;;;44.25;38.25;;;;;8.06;56.92;102842.41;4978740;28;45342;-89
2022/01/27 05:58:16;;;;;;;;;42.25;35.00;;;;;7.94;57.26;102826.50;4979216;28;45471;-89
2022/01/27 06:00:41;;;;;;;;;41.00;34.50;;;;;7.88;56.96;102816.72;4960752;28;45947;-88
2022/01/27 06:03:06;;;;;;;;;40.75;34.00;;;;;7.95;56.81;102830.91;4978452;28;45646;-88
2022/01/27 06:05:33;;;;;;;;;38.50;33.00;;;;;8.11;56.74;102845.97;4978256;28;45424;-89
2022/01/27 06:07:58;;;;;;;;;41.00;32.00;;;;;7.96;56.69;102814.06;4978490;28;46366;-89
2022/01/27 06:10:24;;;;;;;;;39.00;32.75;;;;;8.27;56.87;102870.75;4978203;28;45475;-88
2022/01/27 06:12:52;;;;;;;;;42.75;35.50;;;;;8.30;56.76;102877.84;4957640;28;45735;-88
2022/01/27 06:15:19;;;;;;;;;42.25;33.50;;;;;8.16;56.86;102849.50;4974343;28;45329;-87
2022/01/27 06:17:44;;;;;;;;;46.75;37.00;;;;;8.25;56.66;102875.19;4977982;28;46574;-87
2022/01/27 06:20:10;;;;;;;;;43.25;32.00;;;;;7.93;56.77;102828.22;4978446;28;45357;-88
2022/01/27 06:22:36;;;;;;;;;48.25;35.75;;;;;7.94;56.60;102811.44;4978814;28;45345;-88
2022/01/27 06:25:01;;;;;;;;;44.00;35.25;;;;;8.28;56.89;102876.97;4977920;28;45525;-86
2022/01/27 06:27:26;;;;;;;;;44.25;34.75;;;;;8.12;56.59;102847.72;4978013;28;46450;-86
2022/01/27 06:29:52;;;;;;;;;46.00;36.75;;;;;7.97;56.46;102826.47;4961170;28;45841;-85
2022/01/27 06:32:17;;;;;;;;;38.75;34.50;;;;;7.94;56.40;102815.88;4977453;28;45400;-87
2022/01/27 06:34:42;;;;;;;;;38.75;35.00;;;;;8.16;56.39;102859.25;4986959;28;45647;-85
2022/01/27 06:37:08;;;;;;;;;34.00;29.25;;;;;8.34;56.36;102888.47;4982658;28;46359;-82
2022/01/27 06:39:33;;;;;;;;;49.75;38.25;;;;;7.97;56.87;102831.78;4970341;28;45408;-84
2022/01/27 06:42:01;;;;;;;;;33.75;30.50;;;;;8.32;56.42;102876.97;4977299;28;45429;-82
2022/01/27 06:44:27;;;;;;;;;41.00;33.25;;;;;8.40;56.58;102890.25;4975681;28;45389;-82
2022/01/27 06:46:52;;;;;;;;;45.25;33.25;;;;;8.43;56.41;102882.31;4977127;28;46253;-84
2022/01/27 06:49:17;;;;;;;;;47.00;36.50;;;;;8.06;56.00;102815.88;4978150;28;45441;-84
2022/01/27 06:51:44;;;;;;;;;46.75;34.75;;;;;8.49;56.01;102890.25;4978108;28;45350;-84
2022/01/27 06:54:10;;;;;;;;;39.25;33.50;;;;;8.35;56.42;102866.31;4978272;28;45485;-89
2022/01/27 06:56:35;;;;;;;;;34.25;32.00;;;;;7.91;56.19;102787.50;4960824;28;47096;-89
2022/01/27 06:59:00;;;;;;;;;41.00;34.00;;;;;8.28;56.56;102855.69;4977819;28;45512;-89
2022/01/27 07:01:25;;;;;;;;;42.25;33.25;;;;;7.73;56.11;102753.03;4978231;28;45412;-87
2022/01/27 07:03:51;;;;;;;;;41.25;32.00;;;;;8.48;56.08;102882.31;4978062;28;45575;-85
2022/01/27 07:06:17;;;;;;;;;38.25;33.50;;;;;8.20;56.54;102840.66;4977917;28;46244;-86
2022/01/27 07:08:42;;;;;;;;;40.75;34.00;;;;;8.12;56.24;102815.84;4959757;28;45844;-85
2022/01/27 07:11:08;;;;;;;;;46.50;36.25;;;;;8.43;56.58;102883.19;4978260;28;45385;-85
2022/01/27 07:13:33;;;;;;;;;47.00;34.75;;;;;8.10;56.07;102841.53;4961012;28;45508;-86
2022/01/27 07:15:58;;;;;;;;;34.25;28.50;;;;;7.89;56.41;102799.03;4958938;28;48923;-86
2022/01/27 07:18:24;;;;;;;;;40.50;35.00;;;;;8.40;56.83;102896.47;4976565;28;45493;-86
2022/01/27 07:20:50;;;;;;;;;39.00;33.00;;;;;8.41;56.44;102892.94;4977261;28;45445;-87
2022/01/27 07:23:15;;;;;;;;;38.75;34.75;;;;;8.04;56.31;102821.16;4977506;28;45342;-88
2022/01/27 07:25:42;;;;;;;;;45.25;36.75;;;;;8.04;56.67;102830.91;4960329;28;46190;-89
2022/01/27 07:28:07;;;;;;;;;50.25;37.50;;;;;8.25;56.44;102873.41;4957590;28;46268;-90
2022/01/27 07:30:32;;;;;;;;;40.50;34.00;;;;;8.44;56.82;102895.59;4958100;28;45338;-90
2022/01/27 07:32:58;;;;;;;;;47.75;37.25;;;;;8.15;56.48;102838.91;4961729;28;45326;-91
2022/01/27 07:35:23;;;;;;;;;41.75;34.25;;;;;7.61;56.96;102760.09;4961338;28;47410;-91
2022/01/27 07:37:48;;;;;;;;;41.75;35.00;;;;;7.87;56.47;102791.09;4960040;28;45815;-90
2022/01/27 07:40:14;;;;;;;;;47.25;38.75;;;;;7.96;56.63;102796.41;4976351;28;45449;-90
2022/01/27 07:42:42;;;;;;;;;47.25;37.50;;;;;7.45;56.22;102710.53;4961132;28;45667;-95
2022/01/27 07:45:08;;;;;;;;;39.00;35.00;;;;;7.88;56.41;102757.44;4958788;28;48270;-90
2022/01/27 07:47:34;;;;;;;;;51.25;35.50;;;;;8.16;56.28;102806.13;4959621;28;45472;-90
2022/01/27 07:49:59;;;;;;;;;49.50;40.50;;;;;8.63;56.57;102884.94;4956861;28;45358;-87
2022/01/27 07:52:25;;;;;;;;;47.50;36.50;;;;;8.14;56.24;102797.25;4974542;28;45350;-89
2022/01/27 07:54:51;;;;;;;;;44.00;34.00;;;;;8.10;56.13;102790.19;4977350;28;45480;-86
2022/01/27 07:57:16;;;;;;;;;41.50;35.25;;;;;7.96;56.19;102753.00;4977518;28;45504;-85
2022/01/27 07:59:42;;;;;;;;;51.00;38.75;;;;;8.49;56.19;102845.09;4977198;28;45263;-85
2022/01/27 08:02:07;;;;;;;;;49.50;41.00;;;;;8.75;56.43;102889.34;4977235;28;45564;-84
2022/01/27 08:04:33;;;;;;;;;46.75;37.25;;;;;8.48;56.36;102839.78;4976940;28;45363;-86
2022/01/27 08:07:00;;;;;;;;;43.25;35.00;;;;;8.65;56.11;102868.09;4976697;28;45393;-84
2022/01/27 08:09:25;;;;;;;;;55.75;40.00;;;;;8.24;56.42;102797.28;4974187;28;45513;-83
2022/01/27 08:11:51;;;;;;;;;41.75;33.00;;;;;7.92;56.60;102762.75;4977612;28;45373;-91
2022/01/27 08:14:16;;;;;;;;;43.75;36.00;;;;;8.61;56.29;102860.13;4959055;28;48116;-82
2022/01/27 08:16:41;;;;;;;;;51.25;40.25;;;;;8.18;55.94;102783.97;4961696;28;45369;-81
2022/01/27 08:19:07;;;;;;;;;39.00;30.75;;;;;8.85;55.98;102891.13;4958638;28;45402;-81
2022/01/27 08:21:32;;;;;;;;;48.00;34.75;;;;;8.66;56.04;102858.34;4977452;28;45397;-81
2022/01/27 08:23:59;;;;;;;;;41.00;33.50;;;;;8.74;56.11;102869.88;4976582;28;46233;-79
2022/01/27 08:26:35;;;;;;;;;45.50;35.50;;;;;8.88;56.31;102897.31;4976619;28;45471;-80
2022/01/27 08:29:23;;;;;;;;;59.50;46.75;;;;;8.88;55.91;102896.44;4943321;28;45405;-80
2022/01/27 08:34:35;;;;;;;;;40.25;33.25;;;;;8.65;56.26;102854.81;4976054;28;46117;-79
2022/01/27 08:37:07;;;;;;;;;47.25;34.25;;;;;8.92;55.75;102905.28;4976837;28;45551;-79
2022/01/27 08:39:33;;;;;;;;;36.00;30.50;;;;;8.88;55.74;102907.94;4955858;28;45573;-81
2022/01/27 08:41:59;;;;;;;;;33.25;31.50;;;;;8.60;56.41;102845.97;4977263;28;45632;-80
2022/01/27 08:44:24;;;;;;;;;46.25;35.25;;;;;8.88;55.94;102899.97;4977903;28;46387;-80
2022/01/27 08:46:50;;;;;;;;;44.50;35.75;;;;;8.91;56.09;102893.75;4960067;28;45437;-79
2022/01/27 08:49:19;;;;;;;;;40.75;32.50;;;;;8.66;55.80;102859.25;4977116;28;45526;-80
2022/01/27 08:51:44;;;;;;;;;34.25;30.50;;;;;8.89;56.05;102887.56;4977914;28;45741;-80
2022/01/27 08:54:09;;;;;;;;;24.75;18.50;;;;;8.94;55.81;102890.19;4977021;28;48349;-79
2022/01/27 08:56:35;;;;;;;;;38.75;31.00;;;;;8.80;56.45;102860.97;4975950;28;60765;-79
2022/01/27 08:59:00;;;;;;;;;42.75;34.25;;;;;8.96;55.77;102881.31;4974778;28;45497;-79
2022/01/27 09:01:27;;;;;;;;;43.75;35.75;;;;;8.87;56.21;102861.00;4977386;28;45259;-80
2022/01/27 09:03:53;;;;;;;;;34.00;29.75;;;;;8.50;56.24;102801.69;4977091;28;45847;-80
2022/01/27 09:06:21;;;;;;;;;43.50;34.50;;;;;9.01;56.13;102876.00;4960478;28;46040;-85
2022/01/27 09:08:48;;;;;;;;;38.75;33.25;;;;;8.77;55.97;102845.03;4962091;28;45311;-90
2022/01/27 09:11:13;;;;;;;;;37.75;33.75;;;;;9.06;56.05;102892.81;4958762;28;45506;-89
2022/01/27 09:13:39;;;;;;;;;30.25;27.75;;;;;9.07;56.08;102899.94;4965025;28;46102;-86
2022/01/27 10:32:44;;;;;;;;;38.25;33.75;;;;;9.71;55.60;102867.69;5853834;23;45473;-94
2022/01/27 10:42:08;;;;;;;;;31.33;29.67;;;;;8.66;55.24;102688.22;4919285;28;45463;-88
2022/01/27 10:55:33;;;;;;;;;36.67;31.00;;;;;9.73;55.33;102852.59;4882845;29;45452;-93
2022/01/27 10:58:29;;;;;;;;;34.00;30.75;;;;;9.77;55.41;102856.16;4882663;29;48041;-95
2022/01/27 11:51:12;;;;;;;;;37.00;33.75;;;;;9.60;54.33;102708.91;4981256;28;45223;-96
2022/01/27 11:53:56;;;;;;;;;44.25;34.50;;;;;10.22;55.06;102818.50;4970690;28;48205;-92
2022/01/27 11:56:26;;;;;;;;;36.67;33.00;;;;;10.17;54.63;102815.00;4959630;28;45442;-92
2022/01/27 11:59:10;;;;;;;;;43.00;34.00;;;;;9.67;55.11;102723.97;4961383;28;45522;-94
2022/01/27 12:01:50;;;;;;;;;;;;;;;;;;;;;
2022/01/27 12:05:23;;;;;;;;;40.00;35.25;;;;;8.73;54.86;102564.13;4971791;28;75086;-95
2022/01/27 12:25:14;;;;;;;;;45.25;36.75;;;;;10.05;54.51;102726.28;4901400;29;45319;-92
2022/01/27 12:27:55;;;;;;;;;37.75;32.50;;;;;9.74;54.22;102675.09;4887585;29;45634;-95
2022/01/27 12:33:29;;;;;;;;;39.25;34.50;;;;;10.48;54.66;102791.63;4889788;29;45260;-95
2022/01/27 12:39:50;;;;;;;;;47.00;35.75;;;;;10.70;54.93;102808.28;4909507;28;45474;-95
2022/01/27 12:42:17;;;;;;;;;46.75;34.75;;;;;9.89;54.64;102677.59;4895882;28;47063;-94
2022/01/27 12:45:14;;;;;;;;;42.75;34.00;;;;;10.42;54.80;102746.38;4938299;28;45705;-94
2022/01/27 12:47:44;;;;;;;;;36.75;32.25;;;;;10.52;54.83;102764.06;4925148;28;45470;-94
2022/01/27 12:50:13;;;;;;;;;40.75;32.25;;;;;10.15;54.39;102680.00;4948769;28;45660;-94
2022/01/27 12:52:42;;;;;;;;;38.50;32.75;;;;;9.64;54.33;102583.75;4956866;28;47163;-92
2022/01/27 12:55:10;;;;;;;;;36.00;30.67;;;;;9.50;54.32;102554.63;4967350;28;45445;-94
2022/01/27 12:57:36;;;;;;;;;32.75;30.00;;;;;9.33;53.85;102513.13;4967592;28;45256;-94
2022/01/27 13:00:06;;;;;;;;;33.75;31.00;;;;;9.80;54.16;102595.13;4966246;28;45376;-94
2022/01/27 13:02:32;;;;;;;;;42.00;33.00;;;;;10.34;54.15;102695.81;4973292;28;48143;-94
2022/01/27 13:04:59;;;;;;;;;36.75;30.75;;;;;10.53;53.93;102712.47;4967677;28;45606;-91
2022/01/27 13:07:26;;;;;;;;;36.00;29.75;;;;;10.94;54.32;102783.13;4970341;28;45270;-91
2022/01/27 13:10:07;;;;;;;;;42.00;33.33;;;;;10.98;54.30;102788.41;4964620;28;45492;-92
2022/01/27 13:12:50;;;;;;;;;39.25;33.25;;;;;10.42;54.43;102698.38;4965634;28;47391;-90
2022/01/27 13:15:22;;;;;;;;;37.25;32.00;;;;;10.94;54.59;102780.44;4964111;28;45676;-95
2022/01/27 13:17:57;;;;;;;;;38.67;30.00;;;;;10.92;55.00;102769.78;4964386;28;45318;-92
2022/01/27 13:20:39;;;;;;;;;32.33;30.33;;;;;10.63;55.09;102718.56;4968933;28;45545;-93
2022/01/27 13:23:16;;;;;;;;;34.00;30.00;;;;;10.83;55.37;102767.22;4965975;28;48209;-93
2022/01/27 13:25:50;;;;;;;;;35.00;31.00;;;;;10.53;55.56;102718.69;4979537;28;45564;-94
2022/01/27 13:28:20;;;;;;;;;34.67;32.00;;;;;10.59;56.19;102724.88;4968367;28;45350;-92
2022/01/27 13:30:47;;;;;;;;;40.67;33.33;;;;;10.53;56.09;102721.34;4965921;28;45578;-95
2022/01/27 13:33:15;;;;;;;;;36.25;30.75;;;;;10.86;55.96;102771.63;4962273;28;47512;-93
2022/01/27 13:35:41;;;;;;;;;37.00;32.33;;;;;10.82;56.00;102762.81;4960955;28;45375;-92
2022/01/27 13:38:19;;;;;;;;;33.33;30.00;;;;;10.40;56.44;102695.75;4978577;28;45567;-93
2022/01/27 13:43:40;;;;;;;;;31.67;29.33;;;;;10.44;56.10;102685.91;4973838;28;45525;-93
2022/01/27 13:46:10;;;;;;;;;34.00;30.00;;;;;10.42;56.33;102693.97;4956310;28;45529;-90
2022/01/27 13:48:46;;;;;;;;;30.33;28.00;;;;;10.65;56.43;102725.69;4957478;28;45565;-86
2022/01/27 13:51:22;;;;;;;;;29.33;26.67;;;;;10.54;56.39;102704.47;4958221;28;45388;-89
2022/01/27 13:54:06;;;;;;;;;37.00;31.67;;;;;10.12;56.32;102632.06;4956917;28;48228;-87
2022/01/27 13:56:42;;;;;;;;;28.33;27.00;;;;;10.54;56.52;102709.81;4955237;28;45465;-88
2022/01/27 13:59:16;;;;;;;;;30.33;30.00;;;;;10.41;56.81;102678.84;4957099;28;45467;-89
2022/01/27 14:01:43;;;;;;;;;40.00;31.67;;;;;10.73;56.48;102734.47;4957106;28;45511;-86
2022/01/27 14:04:09;;;;;;;;;34.00;29.00;;;;;10.29;56.96;102658.56;4958165;28;46168;-89
2022/01/27 14:06:47;;;;;;;;;32.67;30.00;;;;;10.32;56.75;102657.63;4957772;28;45476;-88
2022/01/27 14:09:14;;;;;;;;;36.00;32.33;;;;;10.11;56.51;102606.34;4956273;28;45369;-87
2022/01/27 14:11:41;;;;;;;;;32.00;28.00;;;;;10.30;56.82;102644.34;4958562;28;45351;-87
2022/01/27 14:14:07;;;;;;;;;38.00;30.33;;;;;10.28;56.60;102637.25;4950927;28;45742;-87
2022/01/27 14:16:33;;;;;;;;;32.67;30.67;;;;;10.66;56.79;102689.22;4957295;28;45643;-89
2022/01/27 14:19:16;;;;;;;;;38.33;30.00;;;;;10.56;56.62;102662.69;4955327;28;45553;-90
2022/01/27 14:21:47;;;;;;;;;38.33;31.67;;;;;10.91;56.46;102724.44;4945533;28;45400;-91
2022/01/27 14:24:21;;;;;;;;;32.67;30.00;;;;;10.49;56.73;102645.00;4956677;28;47431;-89
2022/01/27 14:27:02;;;;;;;;;31.00;27.00;;;;;10.42;56.63;102624.66;4956853;28;45853;-91
2022/01/27 14:29:27;;;;;;;;;36.67;32.33;;;;;11.05;57.10;102740.28;4957683;28;45440;-90
2022/01/27 14:31:52;;;;;;;;;31.00;28.00;;;;;9.54;56.38;102490.72;4959344;28;45387;-89
2022/01/27 14:34:32;;;;;;;;;30.33;28.67;;;;;10.29;56.66;102620.38;4959274;28;46468;-88
2022/01/27 14:37:00;;;;;;;;;40.67;31.00;;;;;9.97;56.62;102557.66;4959712;28;45448;-91
2022/01/27 14:39:26;;;;;;;;;31.67;26.33;;;;;10.18;56.67;102584.94;4959529;28;45392;-95
2022/01/27 14:42:01;;;;;;;;;31.33;28.67;;;;;9.93;56.92;102554.16;4963321;28;45375;-91
2022/01/27 14:44:31;;;;;;;;;33.67;28.33;;;;;9.82;56.61;102529.41;4958774;28;46222;-94
2022/01/27 14:46:58;;;;;;;;;33.00;29.00;;;;;10.26;56.79;102604.38;4958925;28;46099;-91
2022/01/27 14:49:23;;;;;;;;;32.33;28.67;;;;;10.45;56.64;102624.59;4958387;28;45406;-93